Terminal Aerodrome Forecast
Issued by NWS

Home | Current Version | Previous Version | Text Only | Print | Product List | Glossary On
Versions: 1 2 3 4 5 6 7 8 9 10 11
404
FTUS46 KLOX 300537
TAFSBP
TAF
KSBP 300537Z 3006/0106 VRB05KT P6SM SKC
     FM301900 31012KT P6SM SKC
     FM302100 31018G28KT P6SM SKC
     FM010200 32008KT P6SM SKC=

USA.gov is the U.S. government's official web portal to all federal, state and local government web resources and services.